Madrid, Spain
Current Conditions -  °F | °C
As of 5:30 PM on Wednesday 28 Jan 2015 (Local Time) from LEVS Reporting Station
Clear Clear  
Wind Chill: 57°   Ceiling: Unl
Heat Index: 57°   Visibility: 6mi
Dew Point: 30°   Wind: 0mph
Humidity: 36%   Direction: NA
Pressure: 30.21"   Gusts: NA
Location:  40.42°N, 3.7°W
Report Text: LEVS 281630Z 00000KT CAVOK 14/M01 Q1023
Loading
Personal Weather Stations






























Interactive Weather Map New forecast layout! Learn more

10-Day Weather Forecast

Advertisements
Track Severe Weather on mobile